Time;durP1;ratioP1;P1;durP2;ratioP2;P2;SDS_P1;SDS_P2;PMS_P1;PMS_P2;Temp;Humidity;BMP_temperature;BMP_pressure;BME280_temperature;BME280_humidity;BME280_pressure;Samples;Min_cycle;Max_cycle;Signal;HPM_P1;HPM_P2
2024/02/02 00:01:14;;;;;;;28.88;5.13;;;5.60;99.90;;;;;;5076665;28;20112;-68
2024/02/02 00:03:40;;;;;;;27.50;4.82;;;5.60;99.90;;;;;;5095078;28;20044;-69
2024/02/02 00:06:05;;;;;;;24.58;4.85;;;5.60;99.90;;;;;;5078865;28;20070;-69
2024/02/02 00:08:31;;;;;;;27.92;4.80;;;5.60;99.90;;;;;;5074819;28;20063;-69
2024/02/02 00:10:56;;;;;;;25.55;5.93;;;5.60;99.90;;;;;;5099555;28;20046;-69
2024/02/02 00:13:23;;;;;;;18.48;4.53;;;5.70;99.90;;;;;;5078478;28;20028;-69
2024/02/02 00:15:48;;;;;;;25.77;5.53;;;5.60;99.90;;;;;;5078501;28;20080;-69
2024/02/02 00:18:14;;;;;;;38.45;6.28;;;5.70;99.90;;;;;;5077638;28;20044;-69
2024/02/02 00:20:40;;;;;;;27.85;5.88;;;5.70;99.90;;;;;;5098448;28;20545;-68
2024/02/02 00:23:05;;;;;;;26.00;5.32;;;5.70;99.90;;;;;;5094634;28;20075;-69
2024/02/02 00:25:31;;;;;;;27.23;5.35;;;5.70;99.90;;;;;;5097405;28;20123;-69
2024/02/02 00:27:57;;;;;;;32.33;5.65;;;5.70;99.90;;;;;;5075078;28;20167;-69
2024/02/02 00:30:22;;;;;;;27.83;5.72;;;5.80;99.90;;;;;;5074655;28;20156;-69
2024/02/02 00:32:48;;;;;;;22.02;4.50;;;5.60;99.90;;;;;;5089944;28;20520;-68
2024/02/02 00:35:14;;;;;;;33.00;6.10;;;5.70;99.90;;;;;;5076947;28;20036;-68
2024/02/02 00:37:40;;;;;;;20.23;5.35;;;5.70;99.90;;;;;;5097435;28;20066;-69
2024/02/02 00:40:08;;;;;;;26.33;5.45;;;5.70;99.90;;;;;;5080053;28;20482;-68
2024/02/02 00:42:35;;;;;;;31.33;5.03;;;5.70;99.90;;;;;;5078134;28;20505;-68
2024/02/02 00:45:01;;;;;;;21.15;4.60;;;5.70;99.90;;;;;;5078016;28;20067;-68
2024/02/02 00:47:26;;;;;;;26.65;5.70;;;5.70;99.90;;;;;;5094255;28;20082;-68
2024/02/02 00:49:52;;;;;;;31.10;6.03;;;5.90;99.90;;;;;;5091215;28;20043;-69
2024/02/02 00:52:18;;;;;;;22.80;5.18;;;5.70;99.90;;;;;;5076362;28;20047;-69
2024/02/02 00:54:44;;;;;;;24.90;5.30;;;5.70;99.90;;;;;;5076221;28;20058;-69
2024/02/02 00:57:12;;;;;;;22.75;4.85;;;5.70;99.90;;;;;;5094667;28;20102;-68
2024/02/02 00:59:38;;;;;;;29.30;4.78;;;5.80;99.90;;;;;;5078227;28;20512;-68
2024/02/02 01:02:03;;;;;;;25.08;5.10;;;5.70;99.90;;;;;;5075573;28;20040;-69
2024/02/02 01:04:29;;;;;;;22.17;3.92;;;5.80;99.90;;;;;;5076343;28;20043;-69
2024/02/02 01:06:55;;;;;;;20.90;3.90;;;5.70;99.90;;;;;;5075788;28;20036;-68
2024/02/02 01:09:20;;;;;;;23.42;5.35;;;5.80;99.90;;;;;;5076393;28;20127;-68
2024/02/02 01:11:47;;;;;;;20.15;4.72;;;5.80;99.90;;;;;;5077104;28;20063;-68
2024/02/02 01:14:13;;;;;;;29.25;4.72;;;5.80;99.90;;;;;;5075917;28;20063;-68
2024/02/02 01:16:39;;;;;;;24.05;5.80;;;5.80;99.90;;;;;;5076079;28;20555;-69
2024/02/02 01:19:04;;;;;;;24.63;4.90;;;5.90;99.90;;;;;;5096593;28;20062;-68
2024/02/02 01:21:30;;;;;;;26.75;4.28;;;5.90;99.90;;;;;;5077568;28;20092;-68
2024/02/02 01:23:56;;;;;;;23.73;4.68;;;5.80;99.90;;;;;;5075339;28;20051;-69
2024/02/02 01:26:21;;;;;;;19.00;4.18;;;5.90;99.90;;;;;;5083945;28;20043;-69
2024/02/02 01:28:47;;;;;;;22.73;4.18;;;5.90;99.90;;;;;;5058552;28;20465;-69
2024/02/02 01:31:13;;;;;;;23.80;5.55;;;5.80;99.90;;;;;;5095219;28;20059;-69
2024/02/02 01:33:39;;;;;;;21.55;4.68;;;5.90;99.90;;;;;;5079082;28;20023;-69
2024/02/02 01:36:04;;;;;;;21.83;4.97;;;5.90;99.90;;;;;;5094580;28;20128;-69
2024/02/02 01:38:30;;;;;;;20.77;5.47;;;5.90;99.90;;;;;;5076110;28;20109;-69
2024/02/02 01:40:56;;;;;;;28.20;5.82;;;5.90;99.90;;;;;;5095965;28;20042;-69
2024/02/02 01:43:23;;;;;;;27.42;5.05;;;5.90;99.90;;;;;;5094061;28;20028;-69
2024/02/02 01:45:50;;;;;;;27.45;5.70;;;5.90;99.90;;;;;;5075720;28;20047;-69
2024/02/02 01:48:16;;;;;;;27.15;5.68;;;5.90;99.90;;;;;;5073800;28;20055;-69
2024/02/02 01:50:42;;;;;;;20.30;5.70;;;5.90;99.90;;;;;;5076037;28;20258;-69
2024/02/02 01:53:08;;;;;;;22.40;6.40;;;5.90;99.90;;;;;;5094933;28;20126;-69
2024/02/02 01:55:34;;;;;;;20.13;4.78;;;5.90;99.90;;;;;;5072522;28;20097;-69
2024/02/02 01:58:00;;;;;;;30.17;7.07;;;5.80;99.90;;;;;;5104906;27;20474;-69
2024/02/02 02:00:26;;;;;;;28.15;6.20;;;5.90;99.90;;;;;;5076370;28;20051;-69
2024/02/02 02:02:52;;;;;;;22.00;6.50;;;5.90;99.90;;;;;;5092694;28;20493;-69
2024/02/02 02:05:18;;;;;;;29.70;7.05;;;5.90;99.90;;;;;;5091491;28;20047;-69
2024/02/02 02:07:45;;;;;;;20.88;6.85;;;5.90;99.90;;;;;;5076372;28;20447;-69
2024/02/02 02:10:13;;;;;;;26.48;7.22;;;5.90;99.90;;;;;;5075530;28;20097;-69
2024/02/02 02:12:39;;;;;;;29.20;7.57;;;5.90;99.90;;;;;;5071560;28;20063;-68
2024/02/02 02:15:06;;;;;;;31.73;8.15;;;5.90;99.90;;;;;;5093887;28;20122;-69
2024/02/02 02:17:31;;;;;;;34.60;7.40;;;5.90;99.90;;;;;;5095665;28;20036;-68
2024/02/02 02:19:59;;;;;;;28.25;8.15;;;5.90;99.90;;;;;;5075030;28;20032;-69
2024/02/02 02:22:24;;;;;;;29.13;8.25;;;6.00;99.90;;;;;;5103618;28;20040;-69
2024/02/02 02:24:50;;;;;;;32.55;8.00;;;5.90;99.90;;;;;;5076451;28;20051;-69
2024/02/02 02:27:16;;;;;;;28.20;9.68;;;6.00;99.90;;;;;;5107168;28;20482;-69
2024/02/02 02:29:41;;;;;;;29.67;7.60;;;6.00;99.90;;;;;;5092426;28;20510;-68
2024/02/02 02:32:08;;;;;;;25.35;7.72;;;6.00;99.90;;;;;;5080132;28;20040;-69
2024/02/02 02:34:34;;;;;;;27.08;7.82;;;6.00;99.90;;;;;;5091414;28;20070;-69
2024/02/02 02:36:59;;;;;;;24.40;7.63;;;6.10;99.90;;;;;;5096944;28;20460;-69
2024/02/02 02:39:25;;;;;;;29.45;8.80;;;6.00;99.90;;;;;;5108674;28;20043;-69
2024/02/02 02:41:51;;;;;;;29.73;8.05;;;6.00;99.90;;;;;;5105914;28;20047;-69
2024/02/02 02:44:16;;;;;;;26.58;8.40;;;6.00;99.90;;;;;;5071883;28;20468;-69
2024/02/02 02:46:42;;;;;;;24.23;6.82;;;6.10;99.90;;;;;;5091531;28;20036;-69
2024/02/02 02:49:08;;;;;;;27.95;6.95;;;6.00;99.90;;;;;;5072246;28;20044;-69
2024/02/02 02:51:34;;;;;;;20.58;5.28;;;6.10;99.90;;;;;;5073565;28;20139;-69
2024/02/02 02:53:59;;;;;;;31.58;6.40;;;6.20;99.90;;;;;;5107940;28;20044;-69
2024/02/02 02:56:26;;;;;;;21.52;6.38;;;6.20;99.90;;;;;;5092523;28;20043;-69
2024/02/02 02:58:51;;;;;;;22.88;5.20;;;6.20;99.90;;;;;;5104486;28;20056;-68
2024/02/02 03:01:17;;;;;;;24.27;5.63;;;6.20;99.90;;;;;;5106173;28;20138;-69
2024/02/02 03:03:43;;;;;;;23.55;5.47;;;6.10;99.90;;;;;;5092380;28;20088;-69
2024/02/02 03:06:08;;;;;;;23.83;5.68;;;6.20;99.90;;;;;;5076029;28;20044;-69
2024/02/02 03:08:34;;;;;;;20.85;5.15;;;6.20;99.90;;;;;;5091855;28;20080;-69
2024/02/02 03:10:59;;;;;;;21.60;6.32;;;6.20;99.90;;;;;;5107885;28;20082;-69
2024/02/02 03:13:25;;;;;;;21.23;5.65;;;6.10;99.90;;;;;;5073109;28;20035;-69
2024/02/02 03:15:51;;;;;;;20.27;4.82;;;6.20;99.90;;;;;;5077034;28;20043;-69
2024/02/02 03:18:17;;;;;;;22.25;4.47;;;6.20;99.90;;;;;;5099826;28;20044;-69
2024/02/02 03:20:42;;;;;;;19.27;5.00;;;6.20;99.90;;;;;;5081715;28;20051;-69
2024/02/02 03:23:09;;;;;;;21.77;5.65;;;6.20;99.90;;;;;;5109855;27;20520;-69
2024/02/02 03:25:34;;;;;;;25.48;5.28;;;6.20;99.90;;;;;;5105372;27;20052;-69
2024/02/02 03:28:00;;;;;;;19.52;5.55;;;6.20;99.90;;;;;;5080225;28;20047;-69
2024/02/02 03:30:27;;;;;;;27.50;6.22;;;6.20;99.90;;;;;;5079578;28;20808;-69
2024/02/02 03:32:53;;;;;;;25.40;5.82;;;6.20;99.90;;;;;;5108311;27;20051;-69
2024/02/02 03:35:19;;;;;;;17.58;5.43;;;6.20;99.90;;;;;;5098302;28;20044;-69
2024/02/02 03:37:44;;;;;;;23.33;4.60;;;6.20;99.90;;;;;;5081834;28;20462;-69
2024/02/02 03:40:10;;;;;;;22.10;6.10;;;6.20;99.90;;;;;;5078726;28;20120;-69
2024/02/02 03:42:36;;;;;;;22.88;5.85;;;6.20;99.90;;;;;;5077384;28;20043;-69
2024/02/02 03:45:03;;;;;;;23.42;5.97;;;6.20;99.90;;;;;;5111396;27;20032;-69
2024/02/02 03:47:29;;;;;;;21.58;5.63;;;6.20;99.90;;;;;;5077801;28;20044;-69
2024/02/02 03:49:55;;;;;;;20.58;5.10;;;6.20;99.90;;;;;;5073693;28;20049;-69
2024/02/02 03:52:23;;;;;;;19.13;5.10;;;6.20;99.90;;;;;;5097620;28;20035;-69
2024/02/02 03:54:52;;;;;;;18.65;5.00;;;6.20;99.90;;;;;;5109811;27;20048;-69
2024/02/02 03:57:18;;;;;;;16.67;5.45;;;6.20;99.90;;;;;;5077634;28;20168;-69
2024/02/02 03:59:44;;;;;;;26.50;6.15;;;6.20;99.90;;;;;;5101099;28;20400;-69
2024/02/02 04:02:10;;;;;;;23.10;5.38;;;6.20;99.90;;;;;;5094923;28;20036;-69
2024/02/02 04:04:36;;;;;;;21.35;6.15;;;6.20;99.90;;;;;;5113725;27;20055;-69
2024/02/02 04:07:02;;;;;;;22.63;5.38;;;6.20;99.90;;;;;;5077531;28;20046;-69
2024/02/02 04:09:27;;;;;;;22.20;5.53;;;6.20;99.90;;;;;;5093004;28;20425;-69
2024/02/02 04:11:53;;;;;;;26.75;6.30;;;6.20;99.90;;;;;;5094290;28;20462;-68
2024/02/02 04:14:19;;;;;;;20.73;6.30;;;6.20;99.90;;;;;;5095791;28;20110;-69
2024/02/02 04:16:44;;;;;;;19.77;6.20;;;6.20;99.90;;;;;;5093911;28;20036;-69
2024/02/02 04:19:15;;;;;;;24.58;6.38;;;6.20;99.90;;;;;;5095628;28;20039;-68
2024/02/02 04:21:41;;;;;;;22.58;6.47;;;6.30;99.90;;;;;;5097683;28;20043;-69
2024/02/02 04:24:07;;;;;;;20.27;5.50;;;6.30;99.90;;;;;;5060012;28;20048;-69
2024/02/02 04:26:33;;;;;;;19.45;5.75;;;6.30;99.90;;;;;;5097904;28;20443;-69
2024/02/02 04:28:58;;;;;;;22.85;5.55;;;6.30;99.90;;;;;;5079605;28;20122;-68
2024/02/02 04:31:24;;;;;;;23.00;6.32;;;6.30;99.90;;;;;;5078856;28;20569;-69
2024/02/02 04:33:50;;;;;;;29.15;9.05;;;6.40;99.90;;;;;;5078007;28;20492;-69
2024/02/02 04:36:16;;;;;;;23.50;5.57;;;6.30;99.90;;;;;;5096738;28;20501;-69
2024/02/02 04:38:42;;;;;;;19.45;5.10;;;6.40;99.90;;;;;;5109325;27;20032;-69
2024/02/02 04:41:07;;;;;;;28.45;6.47;;;6.30;99.90;;;;;;5107724;27;20035;-69
2024/02/02 04:43:33;;;;;;;22.67;7.00;;;6.30;99.90;;;;;;5077890;28;20051;-69
2024/02/02 04:45:59;;;;;;;22.08;6.35;;;6.40;99.90;;;;;;5076538;28;20135;-69
2024/02/02 04:48:24;;;;;;;20.55;5.82;;;6.30;99.90;;;;;;5076220;28;20401;-69
2024/02/02 04:50:50;;;;;;;20.50;5.97;;;6.40;99.90;;;;;;5078516;28;20134;-69
2024/02/02 04:53:16;;;;;;;23.38;4.70;;;6.30;99.90;;;;;;5095413;28;20073;-69
2024/02/02 04:55:41;;;;;;;27.52;6.05;;;6.30;99.90;;;;;;5076012;28;20139;-69
2024/02/02 04:58:07;;;;;;;22.20;5.88;;;6.30;99.90;;;;;;5093253;28;20082;-69
2024/02/02 05:00:33;;;;;;;24.42;5.13;;;6.20;99.90;;;;;;5073767;28;20043;-69
2024/02/02 05:02:59;;;;;;;23.85;5.35;;;6.30;99.90;;;;;;5096674;28;20039;-69
2024/02/02 05:05:24;;;;;;;16.33;4.22;;;6.20;99.90;;;;;;5095581;28;20040;-69
2024/02/02 05:07:50;;;;;;;26.60;6.65;;;6.20;99.90;;;;;;5076352;28;20044;-69
2024/02/02 05:10:16;;;;;;;19.25;5.75;;;6.20;99.90;;;;;;5094622;28;20040;-69
2024/02/02 05:12:41;;;;;;;17.35;4.13;;;6.30;99.90;;;;;;5074781;28;20039;-69
2024/02/02 05:15:07;;;;;;;20.33;5.00;;;6.20;99.90;;;;;;5077402;28;20052;-69
2024/02/02 05:17:33;;;;;;;20.58;4.38;;;6.20;99.90;;;;;;5094877;28;20036;-68
2024/02/02 05:19:58;;;;;;;24.35;4.90;;;6.20;99.90;;;;;;5094316;28;20096;-69
2024/02/02 05:22:24;;;;;;;23.23;4.57;;;6.30;99.90;;;;;;5111718;27;20118;-69
2024/02/02 05:24:50;;;;;;;22.67;5.20;;;6.20;99.90;;;;;;5093486;28;20036;-69
2024/02/02 05:27:16;;;;;;;18.38;4.88;;;6.30;99.90;;;;;;5093074;28;20032;-69
2024/02/02 05:29:44;;;;;;;25.48;4.95;;;6.20;99.90;;;;;;5076861;28;20081;-69
2024/02/02 05:32:10;;;;;;;26.33;6.53;;;6.20;99.90;;;;;;5079276;28;20043;-69
2024/02/02 05:34:35;;;;;;;22.73;4.18;;;6.20;99.90;;;;;;5077144;28;20105;-69
2024/02/02 05:37:01;;;;;;;23.55;4.68;;;6.20;99.90;;;;;;5076937;28;20559;-69
2024/02/02 05:39:27;;;;;;;17.70;3.95;;;6.20;99.90;;;;;;5061884;28;20130;-69
2024/02/02 05:41:54;;;;;;;26.17;3.90;;;6.20;99.90;;;;;;5074313;28;20035;-69
2024/02/02 05:44:20;;;;;;;22.38;3.75;;;6.20;99.90;;;;;;5074349;28;20429;-69
2024/02/02 05:46:46;;;;;;;21.45;4.07;;;6.30;99.90;;;;;;5074849;28;20132;-68
2024/02/02 05:49:12;;;;;;;21.48;4.82;;;6.20;99.90;;;;;;5075644;28;20090;-69
2024/02/02 05:51:37;;;;;;;19.77;4.38;;;6.20;99.90;;;;;;5072570;28;20355;-68
2024/02/02 05:54:03;;;;;;;24.38;3.42;;;6.20;99.90;;;;;;5088446;28;20028;-69
2024/02/02 05:56:29;;;;;;;21.35;4.68;;;6.20;99.90;;;;;;5071802;28;20036;-69
2024/02/02 05:58:54;;;;;;;16.70;3.72;;;6.20;99.90;;;;;;5070901;28;20040;-69
2024/02/02 06:01:20;;;;;;;17.98;3.97;;;6.10;99.90;;;;;;5074834;28;20150;-69
2024/02/02 06:03:45;;;;;;;22.70;4.15;;;6.20;99.90;;;;;;5104931;28;20073;-69
2024/02/02 06:06:11;;;;;;;21.88;4.20;;;6.20;99.90;;;;;;5091135;28;20428;-69
2024/02/02 06:08:37;;;;;;;22.27;3.90;;;6.20;99.90;;;;;;5071369;28;20077;-69
2024/02/02 06:11:06;;;;;;;20.75;3.90;;;6.20;99.90;;;;;;5068594;28;20040;-69
2024/02/02 06:13:35;;;;;;;19.55;3.78;;;6.20;99.90;;;;;;5099062;28;20051;-69
2024/02/02 06:16:01;;;;;;;18.38;3.63;;;6.20;99.90;;;;;;5108746;28;20050;-69
2024/02/02 06:18:27;;;;;;;16.30;3.42;;;6.10;99.90;;;;;;5078061;28;20047;-69
2024/02/02 06:20:52;;;;;;;21.60;4.47;;;6.10;99.90;;;;;;5074686;28;20038;-68
2024/02/02 06:23:18;;;;;;;20.58;3.38;;;6.10;99.90;;;;;;5096089;28;20074;-69
2024/02/02 06:25:44;;;;;;;17.65;4.30;;;6.10;99.90;;;;;;5061764;28;20131;-69
2024/02/02 06:28:09;;;;;;;20.23;4.13;;;6.10;99.90;;;;;;5110316;28;20453;-68
2024/02/02 06:30:35;;;;;;;19.23;4.38;;;6.10;99.90;;;;;;5077349;28;20564;-68
2024/02/02 06:33:01;;;;;;;23.88;4.38;;;6.10;99.90;;;;;;5079052;28;20427;-68
2024/02/02 06:35:30;;;;;;;27.33;5.07;;;6.10;99.90;;;;;;5074156;28;20123;-69
2024/02/02 06:37:57;;;;;;;26.25;4.57;;;6.10;99.90;;;;;;5077494;28;20046;-69
2024/02/02 06:40:23;;;;;;;22.98;4.25;;;6.10;99.90;;;;;;5095317;28;20036;-69
2024/02/02 06:42:48;;;;;;;23.42;4.50;;;6.10;99.90;;;;;;5073363;28;20035;-69
2024/02/02 06:45:14;;;;;;;21.90;4.72;;;6.10;99.90;;;;;;5075619;28;20038;-69
2024/02/02 06:47:41;;;;;;;20.95;3.92;;;6.10;99.90;;;;;;5094360;28;20097;-69
2024/02/02 06:50:08;;;;;;;26.52;4.57;;;6.10;99.90;;;;;;5075433;28;20089;-69
2024/02/02 06:52:35;;;;;;;32.40;6.90;;;6.10;99.90;;;;;;5074833;28;20939;-69
2024/02/02 06:55:01;;;;;;;22.88;4.40;;;6.10;99.90;;;;;;5098231;28;20043;-69
2024/02/02 06:57:31;;;;;;;22.30;4.88;;;6.10;99.90;;;;;;5114780;27;20040;-69
2024/02/02 07:00:00;;;;;;;22.73;4.65;;;6.00;99.90;;;;;;5098521;28;20046;-69
2024/02/02 07:02:30;;;;;;;32.72;5.53;;;6.00;99.90;;;;;;5091842;28;20506;-69
2024/02/02 07:04:58;;;;;;;20.95;4.72;;;6.00;99.90;;;;;;5092684;28;20548;-69
2024/02/02 07:07:24;;;;;;;29.42;5.70;;;6.00;99.90;;;;;;5077443;28;20032;-69
2024/02/02 07:09:56;;;;;;;29.08;4.38;;;6.00;99.90;;;;;;5100407;28;20036;-69
2024/02/02 07:12:59;;;;;;;26.85;5.63;;;6.00;99.90;;;;;;5054313;28;20047;-69
2024/02/02 07:15:27;;;;;;;26.27;4.97;;;6.00;99.90;;;;;;5077476;28;21169;-69
2024/02/02 07:17:53;;;;;;;27.73;4.82;;;6.00;99.90;;;;;;5079820;28;20081;-69
2024/02/02 07:20:45;;;;;;;26.83;4.95;;;6.00;99.90;;;;;;5095789;28;20040;-69
2024/02/02 07:23:13;;;;;;;27.20;4.60;;;6.00;99.90;;;;;;5093475;28;20127;-69
2024/02/02 07:25:42;;;;;;;31.80;6.10;;;6.00;99.90;;;;;;5080480;28;20113;-69
2024/02/02 07:28:32;;;;;;;29.10;5.18;;;6.00;99.90;;;;;;5080999;28;20058;-69
2024/02/02 07:30:59;;;;;;;27.85;5.45;;;6.00;99.90;;;;;;5072378;28;20035;-69
2024/02/02 07:33:36;;;;;;;21.42;4.95;;;6.00;99.90;;;;;;5099245;28;20108;-69
2024/02/02 07:36:04;;;;;;;25.15;4.30;;;6.00;99.90;;;;;;5076348;28;20050;-69
2024/02/02 07:38:50;;;;;;;27.58;4.47;;;6.00;99.90;;;;;;5094358;28;20553;-69
2024/02/02 07:41:18;;;;;;;25.20;4.82;;;6.10;99.90;;;;;;5081564;28;20221;-69
2024/02/02 07:43:44;;;;;;;29.15;4.93;;;6.00;99.90;;;;;;5081238;28;20520;-68
2024/02/02 07:46:10;;;;;;;34.17;5.43;;;6.10;99.90;;;;;;5093606;28;20032;-69
2024/02/02 07:48:37;;;;;;;23.65;3.35;;;6.10;99.90;;;;;;5096363;28;20054;-69
2024/02/02 07:51:05;;;;;;;26.02;5.47;;;6.10;99.90;;;;;;5079227;28;20036;-69
2024/02/02 07:53:30;;;;;;;27.23;5.95;;;6.10;99.90;;;;;;5094331;28;20035;-69
2024/02/02 07:55:56;;;;;;;25.77;5.70;;;6.20;99.90;;;;;;5077481;28;20044;-69
2024/02/02 07:58:22;;;;;;;26.08;4.90;;;6.20;99.90;;;;;;5078896;28;20409;-69
2024/02/02 08:00:50;;;;;;;29.35;5.78;;;6.20;99.90;;;;;;5083363;28;20050;-69
2024/02/02 08:03:17;;;;;;;30.10;5.78;;;6.30;99.90;;;;;;5075764;28;20043;-69
2024/02/02 08:05:43;;;;;;;25.75;4.80;;;6.30;99.90;;;;;;5094376;28;20040;-68
2024/02/02 08:08:09;;;;;;;22.08;4.38;;;6.30;99.90;;;;;;5078022;28;20036;-69
2024/02/02 08:10:35;;;;;;;20.75;5.03;;;6.40;99.90;;;;;;5090470;28;20051;-69
2024/02/02 08:13:01;;;;;;;25.90;4.60;;;6.40;99.90;;;;;;5095576;28;20081;-69
2024/02/02 08:15:26;;;;;;;28.40;5.65;;;6.40;99.90;;;;;;5059315;28;20042;-69
2024/02/02 08:17:52;;;;;;;22.42;4.60;;;6.50;99.90;;;;;;5077306;28;20035;-69
2024/02/02 08:20:18;;;;;;;28.95;4.93;;;6.50;99.90;;;;;;5092372;28;20040;-69
2024/02/02 08:22:46;;;;;;;21.98;4.18;;;6.40;99.90;;;;;;5093717;28;20486;-69
2024/02/02 08:25:13;;;;;;;27.83;6.13;;;6.60;99.90;;;;;;5096303;28;20032;-69
2024/02/02 08:27:39;;;;;;;27.90;4.53;;;6.50;99.90;;;;;;5108813;27;20028;-69
2024/02/02 08:30:08;;;;;;;28.45;4.63;;;6.50;99.90;;;;;;5073500;28;20063;-69
2024/02/02 08:32:37;;;;;;;30.95;5.20;;;6.60;99.90;;;;;;5093874;28;20045;-69
2024/02/02 08:35:07;;;;;;;32.97;6.15;;;6.60;99.90;;;;;;5093088;28;20089;-69
2024/02/02 08:37:34;;;;;;;26.27;5.72;;;6.60;99.90;;;;;;5096668;28;20039;-69
2024/02/02 08:39:59;;;;;;;26.60;4.85;;;6.60;99.90;;;;;;5097537;28;20389;-69
2024/02/02 08:42:26;;;;;;;28.30;5.47;;;6.70;99.90;;;;;;5092488;28;20031;-69
2024/02/02 08:44:53;;;;;;;21.73;4.43;;;6.70;99.90;;;;;;5086386;28;20122;-69
2024/02/02 08:47:20;;;;;;;34.40;5.45;;;6.70;99.90;;;;;;5095201;28;20508;-69
2024/02/02 08:49:56;;;;;;;34.17;5.57;;;6.70;99.90;;;;;;5072300;28;20074;-69
2024/02/02 08:52:33;;;;;;;23.55;4.13;;;6.70;99.90;;;;;;5093262;28;20040;-68
2024/02/02 08:55:03;;;;;;;31.15;5.75;;;6.80;99.90;;;;;;5054319;28;20055;-69
2024/02/02 08:58:06;;;;;;;23.45;4.65;;;6.80;99.90;;;;;;5068357;28;20119;-69
2024/02/02 09:00:38;;;;;;;25.38;4.30;;;6.80;99.90;;;;;;5090070;28;20044;-69
2024/02/02 09:03:22;;;;;;;30.45;4.95;;;6.90;99.90;;;;;;5097252;28;20533;-69
2024/02/02 09:05:59;;;;;;;27.95;4.30;;;6.90;99.90;;;;;;5096409;28;20043;-68
2024/02/02 09:08:42;;;;;;;31.75;5.63;;;6.90;99.90;;;;;;5100511;28;20069;-69
2024/02/02 09:11:10;;;;;;;31.05;5.38;;;7.00;99.90;;;;;;5096837;28;20034;-69
2024/02/02 09:13:38;;;;;;;27.77;5.30;;;7.00;99.90;;;;;;5093806;28;20055;-68
2024/02/02 09:16:05;;;;;;;22.13;3.95;;;7.00;99.90;;;;;;5074786;28;20130;-69
2024/02/02 09:18:39;;;;;;;25.90;5.15;;;7.00;99.90;;;;;;5074169;28;20036;-68
2024/02/02 09:21:10;;;;;;;20.20;4.05;;;7.10;99.90;;;;;;5093941;28;20408;-69
2024/02/02 09:23:39;;;;;;;32.78;5.28;;;7.10;99.90;;;;;;5094479;28;20040;-68
2024/02/02 09:26:11;;;;;;;22.35;5.35;;;7.10;99.90;;;;;;5078086;28;20105;-69
2024/02/02 09:28:40;;;;;;;24.48;4.70;;;7.10;99.90;;;;;;5094113;28;20391;-69
2024/02/02 09:31:10;;;;;;;30.77;7.43;;;7.20;99.90;;;;;;5093863;28;20027;-69
2024/02/02 09:34:08;;;;;;;27.67;5.35;;;7.20;99.90;;;;;;5069169;28;20418;-69
2024/02/02 09:36:34;;;;;;;28.48;5.70;;;7.20;99.90;;;;;;5060218;28;20051;-68
2024/02/02 09:39:25;;;;;;;29.40;5.68;;;7.30;99.90;;;;;;5108717;27;20044;-69
2024/02/02 09:42:04;;;;;;;27.63;4.75;;;7.30;99.90;;;;;;5077669;28;20062;-69
2024/02/02 09:44:53;;;;;;;29.15;5.82;;;7.40;99.90;;;;;;5091686;28;20032;-69
2024/02/02 09:47:25;;;;;;;26.58;4.97;;;7.40;99.90;;;;;;5077668;28;20491;-68
2024/02/02 09:50:16;;;;;;;23.33;5.22;;;7.40;99.90;;;;;;5094164;28;20561;-68
2024/02/02 09:53:04;;;;;;;29.17;6.05;;;7.50;99.90;;;;;;5075467;28;20039;-68
2024/02/02 09:55:51;;;;;;;32.03;5.60;;;7.40;99.90;;;;;;5073624;28;20047;-68
2024/02/02 09:59:07;;;;;;;29.67;4.80;;;7.50;99.90;;;;;;5074997;28;20044;-68
2024/02/02 10:01:50;;;;;;;25.05;5.43;;;7.50;99.90;;;;;;5097504;28;20066;-68
2024/02/02 10:04:30;;;;;;;20.90;4.00;;;7.60;99.90;;;;;;5096456;28;20479;-69
2024/02/02 10:07:14;;;;;;;28.15;5.38;;;7.60;99.90;;;;;;5080442;28;20401;-68
2024/02/02 10:10:00;;;;;;;18.98;4.43;;;7.70;99.90;;;;;;5098647;28;20042;-68
2024/02/02 10:12:53;;;;;;;19.98;4.40;;;7.70;99.90;;;;;;5077193;28;20040;-68
2024/02/02 10:15:27;;;;;;;26.80;4.72;;;7.80;99.90;;;;;;5095318;28;20042;-68
2024/02/02 10:18:25;;;;;;;29.70;6.72;;;7.80;99.90;;;;;;5073600;28;20039;-68
2024/02/02 10:21:08;;;;;;;22.33;5.15;;;7.80;99.90;;;;;;5007487;28;20077;-68
2024/02/02 10:23:36;;;;;;;28.77;5.97;;;7.80;99.90;;;;;;5094321;28;20566;-68
2024/02/02 10:26:41;;;;;;;29.85;5.88;;;7.80;99.90;;;;;;5082665;28;20111;-68
2024/02/02 10:29:16;;;;;;;19.80;5.65;;;7.80;99.90;;;;;;5037681;28;20047;-68
2024/02/02 10:32:07;;;;;;;21.38;6.05;;;7.90;99.90;;;;;;5102839;28;20475;-68
2024/02/02 10:34:56;;;;;;;28.48;6.47;;;8.00;99.90;;;;;;5097162;28;20078;-68
2024/02/02 10:37:36;;;;;;;23.73;5.97;;;8.00;99.90;;;;;;5065347;28;20041;-68
2024/02/02 10:40:07;;;;;;;31.27;7.93;;;8.00;99.90;;;;;;5097414;28;20188;-68
2024/02/02 10:42:51;;;;;;;31.27;5.93;;;8.00;99.90;;;;;;5077546;28;20043;-68
2024/02/02 10:45:46;;;;;;;29.80;5.55;;;8.10;99.90;;;;;;5081155;28;20053;-68
2024/02/02 10:48:26;;;;;;;29.42;6.13;;;8.10;99.90;;;;;;5099616;28;20053;-68
2024/02/02 10:51:21;;;;;;;27.80;5.88;;;8.20;99.90;;;;;;5079421;28;20093;-68
2024/02/02 10:53:56;;;;;;;31.27;5.60;;;8.20;99.90;;;;;;5097538;28;20071;-68
2024/02/02 10:56:42;;;;;;;26.48;6.22;;;8.20;99.90;;;;;;5097030;28;20371;-68
2024/02/02 10:59:17;;;;;;;29.25;5.65;;;8.40;99.90;;;;;;5079373;28;20431;-68
2024/02/02 11:01:52;;;;;;;21.50;5.32;;;8.40;99.90;;;;;;5079962;28;20044;-68
2024/02/02 11:04:39;;;;;;;27.08;5.70;;;8.40;99.90;;;;;;5078555;28;20051;-68
2024/02/02 11:07:29;;;;;;;24.98;6.65;;;8.40;99.90;;;;;;5098210;28;20408;-68
2024/02/02 11:10:18;;;;;;;17.70;4.43;;;8.40;99.90;;;;;;5096897;28;20039;-68
2024/02/02 11:12:47;;;;;;;25.00;5.85;;;8.50;99.90;;;;;;5098433;28;20044;-68
2024/02/02 11:15:34;;;;;;;20.23;5.95;;;8.50;99.90;;;;;;5081077;28;20051;-68
2024/02/02 11:18:06;;;;;;;27.70;6.53;;;8.60;99.90;;;;;;5114333;27;20090;-68
2024/02/02 11:21:13;;;;;;;27.05;7.00;;;8.60;99.90;;;;;;5100832;28;20050;-68
2024/02/02 11:23:45;;;;;;;21.75;6.22;;;8.60;99.90;;;;;;5034651;28;20087;-68
2024/02/02 11:26:53;;;;;;;29.70;7.65;;;8.70;99.90;;;;;;5075177;28;20086;-68
2024/02/02 11:29:53;;;;;;;18.63;5.63;;;8.70;99.90;;;;;;5074706;28;20143;-68
2024/02/02 11:32:39;;;;;;;26.15;7.38;;;8.70;99.90;;;;;;5092635;28;20050;-68
2024/02/02 11:35:42;;;;;;;21.80;5.70;;;8.80;99.90;;;;;;5108589;27;20043;-68
2024/02/02 11:38:35;;;;;;;27.83;5.72;;;8.90;99.90;;;;;;5060255;28;20051;-68
2024/02/02 11:41:02;;;;;;;23.75;5.10;;;8.80;99.90;;;;;;5096441;28;20142;-68
2024/02/02 11:43:29;;;;;;;27.45;6.97;;;8.80;99.90;;;;;;5114028;27;20040;-68
2024/02/02 11:45:56;;;;;;;26.90;5.72;;;8.90;99.90;;;;;;5074600;28;20086;-68
2024/02/02 11:48:35;;;;;;;18.63;3.85;;;9.00;99.90;;;;;;5100016;28;20052;-68
2024/02/02 11:51:01;;;;;;;26.30;5.40;;;9.00;99.90;;;;;;5091664;28;20044;-68
2024/02/02 11:53:36;;;;;;;25.23;5.15;;;9.00;99.90;;;;;;5082124;28;20044;-68
2024/02/02 11:56:21;;;;;;;22.50;4.77;;;9.00;99.90;;;;;;5083474;28;20032;-68
2024/02/02 11:58:56;;;;;;;27.98;5.50;;;9.10;99.90;;;;;;5097505;28;20304;-68
2024/02/02 12:01:53;;;;;;;27.30;5.38;;;9.10;99.90;;;;;;5100478;28;20445;-68
2024/02/02 12:04:33;;;;;;;21.27;5.25;;;9.10;99.90;;;;;;5042583;28;20060;-68
2024/02/02 12:07:43;;;;;;;24.98;5.15;;;9.20;99.90;;;;;;5098123;28;20040;-68
2024/02/02 12:10:13;;;;;;;15.68;4.43;;;9.20;99.90;;;;;;5055141;28;20052;-68
2024/02/02 12:12:45;;;;;;;21.98;4.30;;;9.20;99.90;;;;;;5092848;28;20125;-68
2024/02/02 12:15:11;;;;;;;23.38;5.50;;;9.20;99.90;;;;;;5072366;28;20059;-68
2024/02/02 12:17:38;;;;;;;21.13;4.80;;;9.10;99.90;;;;;;5097736;28;20064;-68
2024/02/02 12:20:07;;;;;;;23.30;4.78;;;9.10;99.90;;;;;;5082535;28;20039;-68
2024/02/02 12:22:36;;;;;;;20.95;4.93;;;9.00;99.90;;;;;;5094943;28;20448;-68
2024/02/02 12:25:09;;;;;;;21.13;5.43;;;9.00;99.90;;;;;;5097667;28;20063;-68
2024/02/02 12:27:38;;;;;;;22.95;5.65;;;9.00;99.90;;;;;;5096276;28;20040;-68
2024/02/02 12:30:08;;;;;;;20.13;4.57;;;9.00;99.90;;;;;;5076157;28;20039;-68
2024/02/02 12:32:34;;;;;;;19.88;4.85;;;9.00;99.90;;;;;;5078224;28;20287;-68
2024/02/02 12:35:04;;;;;;;15.48;4.10;;;8.90;99.90;;;;;;5074774;28;20035;-68
2024/02/02 12:37:30;;;;;;;20.00;4.57;;;8.90;99.90;;;;;;5100894;28;20044;-68
2024/02/02 12:39:56;;;;;;;17.98;4.32;;;8.80;99.90;;;;;;5096956;28;20498;-68
2024/02/02 12:42:23;;;;;;;18.20;5.38;;;8.80;99.90;;;;;;5094467;28;20071;-68
2024/02/02 12:44:51;;;;;;;24.25;6.15;;;8.80;99.90;;;;;;5095054;28;20050;-68
2024/02/02 12:47:25;;;;;;;15.27;4.70;;;8.80;99.90;;;;;;5098171;28;20067;-68
2024/02/02 12:49:51;;;;;;;21.40;6.30;;;8.80;99.90;;;;;;5075262;28;20130;-68
2024/02/02 12:52:16;;;;;;;22.77;4.80;;;8.70;99.90;;;;;;5094870;28;20111;-68
2024/02/02 12:54:42;;;;;;;20.00;4.78;;;8.70;99.90;;;;;;5077598;28;20046;-68
2024/02/02 12:57:08;;;;;;;21.13;4.45;;;8.70;99.90;;;;;;5080967;28;20086;-68
2024/02/02 12:59:34;;;;;;;21.00;5.88;;;8.70;99.90;;;;;;5078641;28;20044;-68
2024/02/02 13:02:00;;;;;;;22.50;6.15;;;8.60;99.90;;;;;;5089981;28;20044;-68
2024/02/02 13:04:26;;;;;;;29.63;6.68;;;8.70;99.90;;;;;;5095055;28;20044;-68